Boischatel, Canada
Current Conditions -  °F | °C
As of 3:55 PM on Tuesday 25 Nov 2014 (Local Time) from CYQB Reporting Station
Rain Showers Rain Showers  
Wind Chill: 32°   Ceiling: 6300
Heat Index: 41°   Visibility: 25mi
Dew Point: 30°   Wind: 20mph
Humidity: 65%   Direction: 230°SW
Pressure: 29.78"   Gusts: 30mph
Location:  46.9°N, 71.13°W
Report Text: CYQB 252055Z 23017G26KT 25SM -SHRA OVC063 05/M01 A2978 RMK SC8 SLP086
Loading
Personal Weather Stations






























Interactive Weather Map New forecast layout! Learn more

10-Day Weather Forecast

Advertisements
Track Severe Weather on mobile